RJNF(METAR)
05/30 16:00
RJNF 300700Z 33007KT 9999 FEW050 BKNXXX 24/18 Q1018 RMK A3006=
戻る
トップページへ戻る
IMOC Co,.Ltd.